createdAt,value
2018-04-11T00:00:53.849Z,1002.03
2018-04-11T00:01:53.857Z,1002.02
2018-04-11T00:02:53.805Z,1002.04
2018-04-11T00:03:53.870Z,1002.06
2018-04-11T00:04:53.753Z,1002.10
2018-04-11T00:05:53.782Z,1002.14
2018-04-11T00:06:53.714Z,1002.18
2018-04-11T00:07:53.794Z,1002.19
2018-04-11T00:08:53.665Z,1002.20
2018-04-11T00:09:53.704Z,1002.15
2018-04-11T00:10:53.622Z,1002.14
2018-04-11T00:11:53.615Z,1002.08
2018-04-11T00:12:53.576Z,1002.05
2018-04-11T00:13:53.625Z,1002.01
2018-04-11T00:14:53.530Z,1002.01
2018-04-11T00:15:53.536Z,1002.03
2018-04-11T00:16:53.486Z,1002.03
2018-04-11T00:17:53.549Z,1002.01
2018-04-11T00:18:53.441Z,1001.95
2018-04-11T00:19:53.461Z,1001.96
2018-04-11T00:20:53.399Z,1002.00
2018-04-11T00:21:53.476Z,1002.00
2018-04-11T00:22:53.355Z,1002.00
2018-04-11T00:23:53.387Z,1002.05
2018-04-11T00:24:53.311Z,1002.06
2018-04-11T00:25:53.399Z,1002.13
2018-04-11T00:26:53.265Z,1002.10
2018-04-11T00:27:53.307Z,1002.09
2018-04-11T00:28:53.220Z,1002.15
2018-04-11T00:29:53.219Z,1002.09
2018-04-11T00:30:53.174Z,1002.06
2018-04-11T00:31:53.227Z,1002.09
2018-04-11T00:32:53.125Z,1002.07
2018-04-11T00:33:53.137Z,1002.13
2018-04-11T00:34:53.081Z,1002.13
2018-04-11T00:35:53.145Z,1002.16
2018-04-11T00:36:53.034Z,1002.16
2018-04-11T00:37:53.060Z,1002.15
2018-04-11T00:38:52.989Z,1002.12
2018-04-11T00:39:53.070Z,1002.12
2018-04-11T00:40:52.943Z,1002.11
2018-04-11T00:41:52.980Z,1002.10
2018-04-11T00:42:52.897Z,1002.13
2018-04-11T00:43:52.892Z,1002.14
2018-04-11T00:44:52.851Z,1002.14
2018-04-11T00:45:52.908Z,1002.19
2018-04-11T00:46:52.811Z,1002.16
2018-04-11T00:47:52.817Z,1002.17
2018-04-11T00:48:52.763Z,1002.20
2018-04-11T00:49:52.830Z,1002.21
2018-04-11T00:50:52.718Z,1002.21
2018-04-11T00:51:52.742Z,1002.24
2018-04-11T00:52:52.675Z,1002.25
2018-04-11T00:53:52.753Z,1002.28
2018-04-11T00:54:52.630Z,1002.27
2018-04-11T00:55:52.662Z,1002.28
2018-04-11T00:56:52.580Z,1002.32
2018-04-11T00:57:52.676Z,1002.35
2018-04-11T00:58:52.539Z,1002.35
2018-04-11T00:59:52.579Z,1002.38
2018-04-11T01:00:52.495Z,1002.41
2018-04-11T01:01:52.489Z,1002.45
2018-04-11T01:02:52.444Z,1002.47
2018-04-11T01:03:52.502Z,1002.53
2018-04-11T01:04:52.399Z,1002.50
2018-04-11T01:05:52.410Z,1002.50
2018-04-11T01:06:52.354Z,1002.51
2018-04-11T01:07:52.422Z,1002.54
2018-04-11T01:08:52.309Z,1002.55
2018-04-11T01:09:52.334Z,1002.59
2018-04-11T01:10:52.263Z,1002.64
2018-04-11T01:11:52.349Z,1002.71
2018-04-11T01:12:52.266Z,1002.71
2018-04-11T01:13:52.256Z,1002.70
2018-04-11T01:14:52.176Z,1002.69
2018-04-11T01:15:52.165Z,1002.69
2018-04-11T01:16:52.128Z,1002.69
2018-04-11T01:17:52.176Z,1002.72
2018-04-11T01:18:52.082Z,1002.74
2018-04-11T01:19:52.089Z,1002.74
2018-04-11T01:20:52.037Z,1002.85
2018-04-11T01:21:52.102Z,1002.83
2018-04-11T01:22:51.992Z,1002.84
2018-04-11T01:23:52.012Z,1002.80
2018-04-11T01:24:51.946Z,1002.85
2018-04-11T01:25:52.024Z,1002.83
2018-04-11T01:26:51.903Z,1002.88
2018-04-11T01:27:51.934Z,1002.91
2018-04-11T01:28:51.862Z,1002.90
2018-04-11T01:29:51.944Z,1002.89
2018-04-11T01:30:51.808Z,1002.86
2018-04-11T01:31:51.858Z,1002.88
2018-04-11T01:32:51.767Z,1002.85
2018-04-11T01:33:51.764Z,1002.84
2018-04-11T01:34:51.720Z,1002.85
2018-04-11T01:35:51.777Z,1002.87
2018-04-11T01:36:51.671Z,1002.88
2018-04-11T01:37:51.692Z,1002.88
2018-04-11T01:38:51.634Z,1002.84
2018-04-11T01:39:51.700Z,1002.85
2018-04-11T01:40:51.584Z,1002.84
2018-04-11T01:41:51.611Z,1002.82
2018-04-11T01:42:51.532Z,1002.86
2018-04-11T01:43:51.623Z,1002.84
2018-04-11T01:44:51.485Z,1002.87
2018-04-11T01:45:51.535Z,1002.84
2018-04-11T01:46:51.439Z,1002.90
2018-04-11T01:47:51.448Z,1002.89
2018-04-11T01:48:51.395Z,1002.90
2018-04-11T01:49:51.464Z,1002.96
2018-04-11T01:50:51.351Z,1002.90
2018-04-11T01:51:51.367Z,1002.92
2018-04-11T01:52:51.304Z,1002.91
2018-04-11T01:53:51.382Z,1002.94
2018-04-11T01:54:51.256Z,1002.91
2018-04-11T01:55:51.290Z,1002.95
2018-04-11T01:56:51.212Z,1002.95
2018-04-11T01:57:51.199Z,1002.97
2018-04-11T01:58:51.164Z,1002.94
2018-04-11T01:59:51.213Z,1002.98
2018-04-11T02:00:51.118Z,1002.93
2018-04-11T02:01:51.127Z,1002.92
2018-04-11T02:02:51.073Z,1002.90
2018-04-11T02:03:51.136Z,1002.88
2018-04-11T02:04:51.028Z,1002.85
2018-04-11T02:05:51.050Z,1002.88
2018-04-11T02:06:50.984Z,1002.87
2018-04-11T02:07:51.060Z,1002.92
2018-04-11T02:08:50.934Z,1002.88
2018-04-11T02:09:50.973Z,1002.86
2018-04-11T02:10:50.888Z,1002.90
2018-04-11T02:11:50.887Z,1002.88
2018-04-11T02:12:50.845Z,1002.89
2018-04-11T02:13:50.895Z,1002.92
2018-04-11T02:14:50.797Z,1002.94
2018-04-11T02:15:50.803Z,1002.94
2018-04-11T02:16:50.747Z,1002.96
2018-04-11T02:17:50.816Z,1002.90
2018-04-11T02:18:50.702Z,1002.87
2018-04-11T02:19:50.726Z,1002.86
2018-04-11T02:20:50.655Z,1002.81
2018-04-11T02:21:50.739Z,1002.81
2018-04-11T02:22:50.607Z,1002.75
2018-04-11T02:23:50.643Z,1002.78
2018-04-11T02:24:50.561Z,1002.76
2018-04-11T02:25:50.555Z,1002.70
2018-04-11T02:26:50.516Z,1002.71
2018-04-11T02:27:50.568Z,1002.64
2018-04-11T02:28:50.472Z,1002.64
2018-04-11T02:29:50.479Z,1002.56
2018-04-11T02:30:50.424Z,1002.58
2018-04-11T02:31:50.493Z,1002.61
2018-04-11T02:32:50.375Z,1002.62
2018-04-11T02:33:50.402Z,1002.63
2018-04-11T02:34:50.327Z,1002.70
2018-04-11T02:35:50.413Z,1002.75
2018-04-11T02:36:50.280Z,1002.80
2018-04-11T02:37:50.325Z,1002.82
2018-04-11T02:38:50.239Z,1002.89
2018-04-11T02:39:50.236Z,1002.87
2018-04-11T02:40:50.191Z,1002.85
2018-04-11T02:41:50.247Z,1002.81
2018-04-11T02:42:50.145Z,1002.78
2018-04-11T02:43:50.155Z,1002.77
2018-04-11T02:44:50.109Z,1002.80
2018-04-11T02:45:50.169Z,1002.85
2018-04-11T02:46:50.050Z,1002.85
2018-04-11T02:47:50.078Z,1002.91
2018-04-11T02:48:50.005Z,1002.92
2018-04-11T02:49:50.092Z,1002.94
2018-04-11T02:50:49.955Z,1002.98
2018-04-11T02:51:50.001Z,1002.97
2018-04-11T02:52:49.909Z,1002.90
2018-04-11T02:53:49.912Z,1002.93
2018-04-11T02:54:49.868Z,1002.95
2018-04-11T02:55:49.925Z,1002.96
2018-04-11T02:56:49.812Z,1002.95
2018-04-11T02:57:49.833Z,1002.97
2018-04-11T02:58:49.769Z,1002.93
2018-04-11T02:59:49.845Z,1002.93
2018-04-11T03:00:49.724Z,1002.95
2018-04-11T03:01:49.757Z,1002.97
2018-04-11T03:02:49.678Z,1003.00
2018-04-11T03:03:49.669Z,1002.98
2018-04-11T03:04:49.633Z,1002.98
2018-04-11T03:05:49.678Z,1003.01
2018-04-11T03:06:49.589Z,1002.97
2018-04-11T03:07:49.591Z,1002.98
2018-04-11T03:08:49.536Z,1002.95
2018-04-11T03:09:49.601Z,1002.97
2018-04-11T03:10:49.490Z,1002.96
2018-04-11T03:11:49.513Z,1002.99
2018-04-11T03:12:49.444Z,1002.97
2018-04-11T03:13:49.522Z,1003.02
2018-04-11T03:14:49.398Z,1002.99
2018-04-11T03:15:49.434Z,1003.01
2018-04-11T03:16:49.351Z,1003.00
2018-04-11T03:17:49.445Z,1003.02
2018-04-11T03:18:49.309Z,1002.97
2018-04-11T03:19:49.358Z,1003.00
2018-04-11T03:20:49.257Z,1002.97
2018-04-11T03:21:49.296Z,1002.96
2018-04-11T03:22:49.216Z,1002.93
2018-04-11T03:23:49.279Z,1002.89
2018-04-11T03:24:49.166Z,1002.88
2018-04-11T03:25:49.187Z,1002.90
2018-04-11T03:26:49.119Z,1002.92
2018-04-11T03:27:49.202Z,1002.91
2018-04-11T03:28:49.072Z,1002.94
2018-04-11T03:29:49.107Z,1002.92
2018-04-11T03:30:49.029Z,1002.88
2018-04-11T03:31:49.023Z,1002.86
2018-04-11T03:32:48.984Z,1002.85
2018-04-11T03:33:49.033Z,1002.83
2018-04-11T03:34:48.935Z,1002.77
2018-04-11T03:35:48.943Z,1002.74
2018-04-11T03:36:48.887Z,1002.72
2018-04-11T03:37:48.955Z,1002.69
2018-04-11T03:38:48.840Z,1002.64
2018-04-11T03:39:48.864Z,1002.63
2018-04-11T03:40:48.796Z,1002.58
2018-04-11T03:41:48.876Z,1002.59
2018-04-11T03:42:48.755Z,1002.61
2018-04-11T03:43:48.788Z,1002.54
2018-04-11T03:44:48.704Z,1002.53
2018-04-11T03:45:48.699Z,1002.55
2018-04-11T03:46:48.661Z,1002.55
2018-04-11T03:47:48.715Z,1002.57
2018-04-11T03:48:48.613Z,1002.67
2018-04-11T03:49:48.627Z,1002.69
2018-04-11T03:50:48.568Z,1002.73
2018-04-11T03:51:48.637Z,1002.78
2018-04-11T03:52:48.520Z,1002.78
2018-04-11T03:53:48.549Z,1002.76
2018-04-11T03:54:48.524Z,1002.72
2018-04-11T03:55:48.559Z,1002.74
2018-04-11T03:56:48.431Z,1002.77
2018-04-11T03:57:48.473Z,1002.71
2018-04-11T03:58:48.382Z,1002.67
2018-04-11T03:59:48.376Z,1002.62
2018-04-11T04:00:48.334Z,1002.55
2018-04-11T04:01:48.395Z,1002.47
2018-04-11T04:02:48.287Z,1002.38
2018-04-11T04:03:48.297Z,1002.34
2018-04-11T04:04:48.242Z,1002.24
2018-04-11T04:05:48.315Z,1002.18
2018-04-11T04:06:48.196Z,1002.16
2018-04-11T04:07:48.264Z,1002.18
2018-04-11T04:08:48.145Z,1002.20
2018-04-11T04:09:48.237Z,1002.28
2018-04-11T04:10:48.101Z,1002.36
2018-04-11T04:11:48.145Z,1002.40
2018-04-11T04:12:48.051Z,1002.40
2018-04-11T04:13:48.092Z,1002.43
2018-04-11T04:14:48.007Z,1002.39
2018-04-11T04:15:48.069Z,1002.45
2018-04-11T04:16:47.961Z,1002.46
2018-04-11T04:17:47.978Z,1002.50
2018-04-11T04:18:47.911Z,1002.56
2018-04-11T04:19:48.034Z,1002.64
2018-04-11T04:20:47.865Z,1002.67
2018-04-11T04:21:47.902Z,1002.70
2018-04-11T04:22:47.820Z,1002.73
2018-04-11T04:23:47.816Z,1002.76
2018-04-11T04:24:47.773Z,1002.78
2018-04-11T04:25:47.822Z,1002.80
2018-04-11T04:26:47.725Z,1002.77
2018-04-11T04:27:47.733Z,1002.76
2018-04-11T04:28:47.670Z,1002.79
2018-04-11T04:29:47.743Z,1002.84
2018-04-11T04:30:47.629Z,1002.83
2018-04-11T04:31:47.655Z,1002.84
2018-04-11T04:32:47.584Z,1002.83
2018-04-11T04:33:47.672Z,1002.78
2018-04-11T04:34:47.537Z,1002.76
2018-04-11T04:35:47.577Z,1002.77
2018-04-11T04:36:47.488Z,1002.72
2018-04-11T04:37:47.487Z,1002.76
2018-04-11T04:38:47.440Z,1002.80
2018-04-11T04:39:47.499Z,1002.79
2018-04-11T04:40:47.399Z,1002.81
2018-04-11T04:41:47.408Z,1002.86
2018-04-11T04:42:47.350Z,1002.82
2018-04-11T04:43:47.441Z,1002.80
2018-04-11T04:44:47.301Z,1002.81
2018-04-11T04:45:47.331Z,1002.73
2018-04-11T04:46:47.255Z,1002.73
2018-04-11T04:47:47.342Z,1002.68
2018-04-11T04:48:47.208Z,1002.65
2018-04-11T04:49:47.254Z,1002.68
2018-04-11T04:50:47.160Z,1002.71
2018-04-11T04:51:47.157Z,1002.71
2018-04-11T04:52:47.112Z,1002.73
2018-04-11T04:53:47.177Z,1002.72
2018-04-11T04:54:47.071Z,1002.72
2018-04-11T04:55:47.087Z,1002.74
2018-04-11T04:56:47.019Z,1002.75
2018-04-11T04:57:47.098Z,1002.74
2018-04-11T04:58:46.975Z,1002.74
2018-04-11T04:59:47.009Z,1002.71
2018-04-11T05:00:46.927Z,1002.65
2018-04-11T05:01:46.921Z,1002.63
2018-04-11T05:02:46.879Z,1002.61
2018-04-11T05:03:46.933Z,1002.59
2018-04-11T05:04:46.832Z,1002.60
2018-04-11T05:05:46.844Z,1002.61
2018-04-11T05:06:46.788Z,1002.62
2018-04-11T05:07:46.857Z,1002.59
2018-04-11T05:08:46.738Z,1002.58
2018-04-11T05:09:46.769Z,1002.62
2018-04-11T05:10:46.702Z,1002.59
2018-04-11T05:11:46.784Z,1002.64
2018-04-11T05:12:46.642Z,1002.63
2018-04-11T05:13:46.691Z,1002.63
2018-04-11T05:14:46.603Z,1002.62
2018-04-11T05:15:46.606Z,1002.65
2018-04-11T05:16:46.552Z,1002.61
2018-04-11T05:17:46.613Z,1002.60
2018-04-11T05:18:46.505Z,1002.62
2018-04-11T05:19:46.520Z,1002.67
2018-04-11T05:20:46.458Z,1002.73
2018-04-11T05:21:46.543Z,1002.77
2018-04-11T05:22:46.412Z,1002.78
2018-04-11T05:23:46.440Z,1002.80
2018-04-11T05:24:46.367Z,1002.79
2018-04-11T05:25:46.352Z,1002.76
2018-04-11T05:26:46.314Z,1002.77
2018-04-11T05:27:46.364Z,1002.75
2018-04-11T05:28:46.266Z,1002.74
2018-04-11T05:29:46.280Z,1002.76
2018-04-11T05:30:46.220Z,1002.78
2018-04-11T05:31:46.289Z,1002.81
2018-04-11T05:32:46.210Z,1002.80
2018-04-11T05:33:46.197Z,1002.84
2018-04-11T05:34:46.128Z,1002.85
2018-04-11T05:35:46.208Z,1002.84
2018-04-11T05:36:46.079Z,1002.84
2018-04-11T05:37:46.122Z,1002.90
2018-04-11T05:38:46.037Z,1002.90
2018-04-11T05:39:46.032Z,1002.95
2018-04-11T05:40:45.994Z,1003.00
2018-04-11T05:41:46.044Z,1003.04
2018-04-11T05:42:45.941Z,1003.10
2018-04-11T05:43:45.980Z,1003.12
2018-04-11T05:44:45.893Z,1003.16
2018-04-11T05:45:45.970Z,1003.17
2018-04-11T05:46:45.849Z,1003.16
2018-04-11T05:47:45.874Z,1003.20
2018-04-11T05:48:45.799Z,1003.20
2018-04-11T05:49:45.887Z,1003.23
2018-04-11T05:50:45.755Z,1003.25
2018-04-11T05:51:45.797Z,1003.26
2018-04-11T05:52:45.707Z,1003.24
2018-04-11T05:53:45.706Z,1003.28
2018-04-11T05:54:45.662Z,1003.25
2018-04-11T05:55:45.718Z,1003.27
2018-04-11T05:56:45.617Z,1003.29
2018-04-11T05:57:45.629Z,1003.24
2018-04-11T05:58:45.577Z,1003.25
2018-04-11T05:59:45.642Z,1003.32
2018-04-11T06:00:45.519Z,1003.35
2018-04-11T06:01:45.553Z,1003.33
2018-04-11T06:02:45.474Z,1003.36
2018-04-11T06:03:45.563Z,1003.39
2018-04-11T06:04:45.427Z,1003.40
2018-04-11T06:05:45.475Z,1003.37
2018-04-11T06:06:45.382Z,1003.39
2018-04-11T06:07:45.385Z,1003.41
2018-04-11T06:08:45.340Z,1003.44
2018-04-11T06:09:45.393Z,1003.46
2018-04-11T06:10:45.288Z,1003.47
2018-04-11T06:11:45.337Z,1003.43
2018-04-11T06:12:45.242Z,1003.46
2018-04-11T06:13:45.316Z,1003.45
2018-04-11T06:14:45.199Z,1003.42
2018-04-11T06:15:45.229Z,1003.41
2018-04-11T06:16:45.149Z,1003.37
2018-04-11T06:17:45.139Z,1003.34
2018-04-11T06:18:45.130Z,1003.31
2018-04-11T06:19:45.151Z,1003.36
2018-04-11T06:20:45.056Z,1003.33
2018-04-11T06:21:45.061Z,1003.37
2018-04-11T06:22:45.012Z,1003.42
2018-04-11T06:23:45.075Z,1003.44
2018-04-11T06:24:44.965Z,1003.46
2018-04-11T06:25:44.983Z,1003.43
2018-04-11T06:26:44.920Z,1003.47
2018-04-11T06:27:44.996Z,1003.46
2018-04-11T06:28:44.881Z,1003.49
2018-04-11T06:29:44.910Z,1003.51
2018-04-11T06:30:44.829Z,1003.53
2018-04-11T06:31:44.824Z,1003.51
2018-04-11T06:32:44.781Z,1003.53
2018-04-11T06:33:44.854Z,1003.54
2018-04-11T06:34:44.737Z,1003.52
2018-04-11T06:35:44.749Z,1003.50
2018-04-11T06:36:44.693Z,1003.53
2018-04-11T06:37:44.765Z,1003.49
2018-04-11T06:38:44.645Z,1003.48
2018-04-11T06:39:44.675Z,1003.50
2018-04-11T06:40:44.595Z,1003.49
2018-04-11T06:41:44.584Z,1003.52
2018-04-11T06:42:44.552Z,1003.52
2018-04-11T06:43:44.599Z,1003.53
2018-04-11T06:44:44.494Z,1003.53
2018-04-11T06:45:44.510Z,1003.54
2018-04-11T06:46:44.457Z,1003.53
2018-04-11T06:47:44.543Z,1003.53
2018-04-11T06:48:44.412Z,1003.56
2018-04-11T06:49:44.439Z,1003.55
2018-04-11T06:50:44.365Z,1003.55
2018-04-11T06:51:44.453Z,1003.56
2018-04-11T06:52:44.320Z,1003.55
2018-04-11T06:53:44.361Z,1003.50
2018-04-11T06:54:44.277Z,1003.52
2018-04-11T06:55:44.275Z,1003.57
2018-04-11T06:56:44.228Z,1003.50
2018-04-11T06:57:44.326Z,1003.51
2018-04-11T06:58:44.181Z,1003.55
2018-04-11T06:59:44.217Z,1003.54
2018-04-11T07:00:44.139Z,1003.57
2018-04-11T07:01:44.212Z,1003.59
2018-04-11T07:02:44.090Z,1003.59
2018-04-11T07:03:44.130Z,1003.59
2018-04-11T07:04:44.047Z,1003.59
2018-04-11T07:05:44.040Z,1003.60
2018-04-11T07:06:44.001Z,1003.58
2018-04-11T07:07:44.054Z,1003.59
2018-04-11T07:08:43.953Z,1003.59
2018-04-11T07:09:43.963Z,1003.64
2018-04-11T07:10:43.911Z,1003.61
2018-04-11T07:11:43.977Z,1003.62
2018-04-11T07:12:43.862Z,1003.58
2018-04-11T07:13:43.888Z,1003.55
2018-04-11T07:14:43.819Z,1003.60
2018-04-11T07:15:43.902Z,1003.57
2018-04-11T07:16:43.770Z,1003.60
2018-04-11T07:17:43.813Z,1003.62
2018-04-11T07:18:43.727Z,1003.66
2018-04-11T07:19:43.828Z,1003.65
2018-04-11T07:20:43.678Z,1003.67
2018-04-11T07:21:43.738Z,1003.71
2018-04-11T07:22:43.635Z,1003.67
2018-04-11T07:23:43.651Z,1003.70
2018-04-11T07:24:43.584Z,1003.70
2018-04-11T07:25:43.714Z,1003.73
2018-04-11T07:26:43.544Z,1003.76
2018-04-11T07:27:43.575Z,1003.74
2018-04-11T07:28:43.497Z,1003.75
2018-04-11T07:29:43.487Z,1003.77
2018-04-11T07:30:43.449Z,1003.77
2018-04-11T07:31:43.502Z,1003.74
2018-04-11T07:32:43.402Z,1003.76
2018-04-11T07:33:43.449Z,1003.74
2018-04-11T07:34:43.361Z,1003.79
2018-04-11T07:35:43.428Z,1003.79
2018-04-11T07:36:43.313Z,1003.79
2018-04-11T07:37:43.339Z,1003.83
2018-04-11T07:38:43.267Z,1003.84
2018-04-11T07:39:43.352Z,1003.81
2018-04-11T07:40:43.222Z,1003.85
2018-04-11T07:41:43.263Z,1003.85
2018-04-11T07:42:43.173Z,1003.85
2018-04-11T07:43:43.179Z,1003.82
2018-04-11T07:44:43.129Z,1003.82
2018-04-11T07:45:43.189Z,1003.83
2018-04-11T07:46:43.094Z,1003.78
2018-04-11T07:47:43.133Z,1003.78
2018-04-11T07:48:43.041Z,1003.79
2018-04-11T07:49:43.114Z,1003.77
2018-04-11T07:50:42.996Z,1003.78
2018-04-11T07:51:43.030Z,1003.77
2018-04-11T07:52:42.947Z,1003.75
2018-04-11T07:53:43.040Z,1003.77
2018-04-11T07:54:42.905Z,1003.78
2018-04-11T07:55:42.951Z,1003.73
2018-04-11T07:56:42.862Z,1003.74
2018-04-11T07:57:42.864Z,1003.75
2018-04-11T07:58:42.814Z,1003.73
2018-04-11T07:59:42.876Z,1003.74
2018-04-11T08:00:42.765Z,1003.77
2018-04-11T08:01:42.792Z,1003.77
2018-04-11T08:02:42.721Z,1003.78
2018-04-11T08:03:42.805Z,1003.79
2018-04-11T08:04:42.679Z,1003.73
2018-04-11T08:05:42.717Z,1003.78
2018-04-11T08:06:42.724Z,1003.82
2018-04-11T08:07:42.606Z,1003.76
2018-04-11T08:08:42.635Z,1003.85
2018-04-11T08:09:42.562Z,1003.77
2018-04-11T08:10:42.648Z,1003.79
2018-04-11T08:11:42.520Z,1003.80
2018-04-11T08:12:42.560Z,1003.82
2018-04-11T08:13:42.473Z,1003.83
2018-04-11T08:14:42.471Z,1003.83
2018-04-11T08:15:42.426Z,1003.86
2018-04-11T08:16:42.485Z,1003.89
2018-04-11T08:17:42.381Z,1003.86
2018-04-11T08:18:42.401Z,1003.86
2018-04-11T08:19:42.336Z,1003.85
2018-04-11T08:20:42.412Z,1003.87
2018-04-11T08:21:42.289Z,1003.84
2018-04-11T08:22:42.323Z,1003.82
2018-04-11T08:23:42.243Z,1003.84
2018-04-11T08:24:42.234Z,1003.87
2018-04-11T08:25:42.202Z,1003.88
2018-04-11T08:26:42.248Z,1003.88
2018-04-11T08:27:42.153Z,1003.88
2018-04-11T08:28:42.163Z,1003.90
2018-04-11T08:29:42.107Z,1003.85
2018-04-11T08:30:42.173Z,1003.87
2018-04-11T08:31:42.064Z,1003.85
2018-04-11T08:32:42.084Z,1003.84
2018-04-11T08:33:42.021Z,1003.83
2018-04-11T08:34:42.000Z,1003.85
2018-04-11T08:35:41.976Z,1003.89
2018-04-11T08:36:42.011Z,1003.86
2018-04-11T08:37:41.934Z,1003.86
2018-04-11T08:38:41.921Z,1003.85
2018-04-11T08:39:41.883Z,1003.88
2018-04-11T08:40:41.936Z,1003.86
2018-04-11T08:41:41.839Z,1003.87
2018-04-11T08:42:41.847Z,1003.88
2018-04-11T08:43:41.794Z,1003.87
2018-04-11T08:44:41.860Z,1003.90
2018-04-11T08:45:41.748Z,1003.91
2018-04-11T08:46:41.774Z,1003.92
2018-04-11T08:47:41.707Z,1003.92
2018-04-11T08:48:41.786Z,1003.90
2018-04-11T08:49:41.656Z,1003.89
2018-04-11T08:50:41.698Z,1003.95
2018-04-11T08:51:41.619Z,1003.93
2018-04-11T08:52:41.610Z,1003.93
2018-04-11T08:53:41.567Z,1003.91
2018-04-11T08:54:41.623Z,1003.89
2018-04-11T08:55:41.525Z,1003.89
2018-04-11T08:56:41.534Z,1003.95
2018-04-11T08:57:41.477Z,1003.97
2018-04-11T08:58:41.549Z,1003.92
2018-04-11T08:59:41.433Z,1003.94
2018-04-11T09:00:41.460Z,1003.95
2018-04-11T09:01:41.387Z,1003.97
2018-04-11T09:02:41.474Z,1003.96
2018-04-11T09:03:41.345Z,1004.01
2018-04-11T09:04:41.387Z,1003.95
2018-04-11T09:05:41.297Z,1003.98
2018-04-11T09:06:41.299Z,1003.97
2018-04-11T09:07:41.253Z,1003.99
2018-04-11T09:08:41.317Z,1003.97
2018-04-11T09:09:41.211Z,1003.99
2018-04-11T09:10:41.224Z,1004.00
2018-04-11T09:11:41.164Z,1003.95
2018-04-11T09:12:41.241Z,1003.96
2018-04-11T09:13:41.121Z,1003.94
2018-04-11T09:14:41.151Z,1003.96
2018-04-11T09:15:41.076Z,1003.95
2018-04-11T09:16:41.162Z,1003.93
2018-04-11T09:17:41.026Z,1003.93
2018-04-11T09:18:41.076Z,1003.94
2018-04-11T09:19:40.988Z,1003.97
2018-04-11T09:20:40.989Z,1003.96
2018-04-11T09:21:40.939Z,1003.97
2018-04-11T09:22:41.004Z,1003.96
2018-04-11T09:23:40.895Z,1003.95
2018-04-11T09:24:40.912Z,1003.96
2018-04-11T09:25:40.850Z,1003.90
2018-04-11T09:26:40.932Z,1003.92
2018-04-11T09:27:40.807Z,1003.93
2018-04-11T09:28:40.838Z,1003.96
2018-04-11T09:29:40.775Z,1004.01
2018-04-11T09:30:40.853Z,1004.01
2018-04-11T09:31:40.742Z,1003.99
2018-04-11T09:32:40.765Z,1004.00
2018-04-11T09:33:40.677Z,1004.04
2018-04-11T09:34:40.676Z,1004.01
2018-04-11T09:35:40.630Z,1004.02
2018-04-11T09:36:40.692Z,1004.00
2018-04-11T09:37:40.583Z,1004.05
2018-04-11T09:38:40.650Z,1004.02
2018-04-11T09:39:40.540Z,1004.01
2018-04-11T09:40:40.518Z,1004.05
2018-04-11T09:41:40.509Z,1004.04
2018-04-11T09:42:40.631Z,1004.04
2018-04-11T09:43:40.453Z,1004.03
2018-04-11T09:44:40.534Z,1004.05
2018-04-11T09:45:40.406Z,1004.07
2018-04-11T09:46:40.383Z,1004.08
2018-04-11T09:47:40.460Z,1004.03
2018-04-11T09:48:40.336Z,1004.07
2018-04-11T09:49:40.475Z,1004.04
2018-04-11T09:50:40.293Z,1004.05
2018-04-11T09:51:40.389Z,1004.05
2018-04-11T09:52:40.250Z,1004.02
2018-04-11T09:53:40.299Z,1004.04
2018-04-11T09:54:40.212Z,1004.04
2018-04-11T09:55:40.317Z,1004.01
2018-04-11T09:56:40.166Z,1004.06
2018-04-11T09:57:40.228Z,1004.06
2018-04-11T09:58:40.117Z,1004.03
2018-04-11T09:59:40.242Z,1004.06
2018-04-11T10:00:40.075Z,1004.05
2018-04-11T10:01:40.152Z,1004.08
2018-04-11T10:02:40.034Z,1004.08
2018-04-11T10:03:40.165Z,1004.08
2018-04-11T10:04:39.984Z,1004.06
2018-04-11T10:05:40.077Z,1004.08
2018-04-11T10:06:39.940Z,1004.09
2018-04-11T10:07:40.092Z,1004.09
2018-04-11T10:08:39.908Z,1004.07
2018-04-11T10:09:40.002Z,1004.07
2018-04-11T10:10:39.851Z,1004.08
2018-04-11T10:11:40.016Z,1004.11
2018-04-11T10:12:39.808Z,1004.10
2018-04-11T10:13:39.790Z,1004.10
2018-04-11T10:14:39.763Z,1004.09
2018-04-11T10:15:39.784Z,1004.10
2018-04-11T10:16:39.718Z,1004.10
2018-04-11T10:17:39.775Z,1004.08
2018-04-11T10:18:39.790Z,1004.07
2018-04-11T10:19:39.686Z,1004.09
2018-04-11T10:20:39.635Z,1004.11
2018-04-11T10:21:39.708Z,1004.13
2018-04-11T10:22:39.588Z,1004.13
2018-04-11T10:23:39.609Z,1004.12
2018-04-11T10:24:39.537Z,1004.09
2018-04-11T10:25:39.622Z,1004.09
2018-04-11T10:26:39.502Z,1004.09
2018-04-11T10:27:39.532Z,1004.09
2018-04-11T10:28:39.453Z,1004.12
2018-04-11T10:29:39.544Z,1004.10
2018-04-11T10:30:39.411Z,1004.09
2018-04-11T10:31:39.458Z,1004.08
2018-04-11T10:32:39.362Z,1004.11
2018-04-11T10:33:39.389Z,1004.11
2018-04-11T10:34:39.323Z,1004.09
2018-04-11T10:35:39.377Z,1004.12
2018-04-11T10:36:39.279Z,1004.11
2018-04-11T10:37:39.287Z,1004.12
2018-04-11T10:38:39.227Z,1004.12
2018-04-11T10:39:39.300Z,1004.12
2018-04-11T10:40:39.184Z,1004.10
2018-04-11T10:41:39.219Z,1004.11
2018-04-11T10:42:39.137Z,1004.11
2018-04-11T10:43:39.225Z,1004.09
2018-04-11T10:44:39.092Z,1004.09
2018-04-11T10:45:39.132Z,1004.07
2018-04-11T10:46:39.048Z,1004.12
2018-04-11T10:47:39.041Z,1004.11
2018-04-11T10:48:39.003Z,1004.11
2018-04-11T10:49:39.056Z,1004.12
2018-04-11T10:50:38.958Z,1004.10
2018-04-11T10:51:38.967Z,1004.07
2018-04-11T10:52:38.919Z,1004.07
2018-04-11T10:53:38.978Z,1004.09
2018-04-11T10:54:38.865Z,1004.12
2018-04-11T10:55:38.891Z,1004.12
2018-04-11T10:56:38.821Z,1004.12
2018-04-11T10:57:38.904Z,1004.12
2018-04-11T10:58:38.775Z,1004.12
2018-04-11T10:59:38.814Z,1004.19
2018-04-11T11:00:38.733Z,1004.21
2018-04-11T11:01:38.723Z,1004.21
2018-04-11T11:02:38.683Z,1004.20
2018-04-11T11:03:38.739Z,1004.20
2018-04-11T11:04:38.639Z,1004.18
2018-04-11T11:05:38.649Z,1004.21
2018-04-11T11:06:38.595Z,1004.17
2018-04-11T11:07:38.660Z,1004.19
2018-04-11T11:08:38.546Z,1004.13
2018-04-11T11:09:38.574Z,1004.17
2018-04-11T11:10:38.505Z,1004.18
2018-04-11T11:11:38.583Z,1004.18
2018-04-11T11:12:38.465Z,1004.16
2018-04-11T11:13:38.493Z,1004.15
2018-04-11T11:14:38.411Z,1004.15
2018-04-11T11:15:38.509Z,1004.17
2018-04-11T11:16:38.364Z,1004.16
2018-04-11T11:17:38.410Z,1004.19
2018-04-11T11:18:38.317Z,1004.18
2018-04-11T11:19:38.323Z,1004.16
2018-04-11T11:20:38.270Z,1004.18
2018-04-11T11:21:38.337Z,1004.17
2018-04-11T11:22:38.225Z,1004.19
2018-04-11T11:23:38.244Z,1004.15
2018-04-11T11:24:38.179Z,1004.14
2018-04-11T11:25:38.256Z,1004.13
2018-04-11T11:26:38.131Z,1004.14
2018-04-11T11:27:38.166Z,1004.15
2018-04-11T11:28:38.084Z,1004.08
2018-04-11T11:29:38.076Z,1004.06
2018-04-11T11:30:38.041Z,1004.09
2018-04-11T11:31:38.089Z,1004.06
2018-04-11T11:32:37.992Z,1004.03
2018-04-11T11:33:37.997Z,1004.07
2018-04-11T11:34:37.946Z,1004.02
2018-04-11T11:35:38.011Z,1004.03
2018-04-11T11:36:37.899Z,1004.07
2018-04-11T11:37:37.922Z,1004.05
2018-04-11T11:38:37.854Z,1004.06
2018-04-11T11:39:37.933Z,1004.01
2018-04-11T11:40:37.804Z,1004.05
2018-04-11T11:41:37.845Z,1004.03
2018-04-11T11:42:37.758Z,1004.02
2018-04-11T11:43:37.759Z,1004.04
2018-04-11T11:44:37.710Z,1004.08
2018-04-11T11:45:37.771Z,1004.04
2018-04-11T11:46:37.667Z,1004.05
2018-04-11T11:47:37.679Z,1004.03
2018-04-11T11:48:37.618Z,1004.01
2018-04-11T11:49:37.694Z,1004.01
2018-04-11T11:50:37.580Z,1003.99
2018-04-11T11:51:37.603Z,1004.06
2018-04-11T11:52:37.520Z,1004.01
2018-04-11T11:53:37.611Z,1003.98
2018-04-11T11:54:37.475Z,1004.02
2018-04-11T11:55:37.523Z,1004.02
2018-04-11T11:56:37.431Z,1004.01
2018-04-11T11:57:37.434Z,1004.01
2018-04-11T11:58:37.383Z,1004.00
2018-04-11T11:59:38.467Z,1004.00
2018-04-11T12:00:37.341Z,1003.96
2018-04-11T12:01:37.354Z,1003.97
2018-04-11T12:02:37.288Z,1003.96
2018-04-11T12:03:37.367Z,1004.01
2018-04-11T12:04:37.239Z,1003.98
2018-04-11T12:05:37.278Z,1003.98